Aérodrome :
LOGIN :

S'inscrire | Disclaimer

   EN    FR    IT 

 










Légende :    VFR   VFR Marginal   IFR   IFR Intensif   IFR Très Intensif
Visi : 
Plafond : 
>= 8 km
>= 3000ft
5 à 8 km
1000 à 3000 ft
1500m à 5 km
500 à 1000 ft
800 à 1500m
200 à 500 ft
< 800m
< 200 ft
Symboles :   Orages  Brouillard  Fortes neiges  Fortes précipitations  Vent > 20 kt
SIGMETs :   Divers  Orages  Givrage  Turbulence  Onde Orograph.  Cendres Volcan.






- Altitude de l'aérodrome : 0 ft


ETWM - Meppe

DERNIER METAR :
  • 230620Z 20005KT 9999 FEW020 SCT072 19/15 Q1014 BLU+

METARs EXPIRÉS :
  • 230520Z 18003KT 9999 SCT026 BKN100 18/15 Q1014 BLU
  • 230420Z 21003KT 9999 BKN026 18/15 Q1015 BLU
  • 230320Z AUTO VRB03KT //// // ////// 18/14 Q1015 ///
  • 230220Z AUTO 21004KT //// // ////// 19/14 Q1015 ///

TAF N/A



MET'MAP, la Météo Aéronautique d'un coup d'oeil ! - Copyright ORBIFLY Décembre 2007 - Disclaimer

ORBIFLY MET'MAP TEAM :

Programmation & Développement : Alexandra Zaïnal
Sur une idée originale de : Baudouin d'Aumeries
Soutien technique & logistique : Manuel Goepfert
Assistance : Marc-Olivier Méhu




SOURCES & CREDITS :

   NOAA